sensor_id;sensor_type;location;lat;lon;timestamp;P1;durP1;ratioP1;P2;durP2;ratioP2
30048;SDS011;16879;50.852;15.602;2023-06-26T00:02:02;5.60;;;4.90;;
30048;SDS011;16879;50.852;15.602;2023-06-26T00:04:29;7.07;;;6.38;;
30048;SDS011;16879;50.852;15.602;2023-06-26T00:06:55;6.53;;;5.88;;
30048;SDS011;16879;50.852;15.602;2023-06-26T00:09:22;8.20;;;6.47;;
30048;SDS011;16879;50.852;15.602;2023-06-26T00:11:49;7.03;;;5.55;;
30048;SDS011;16879;50.852;15.602;2023-06-26T00:14:15;5.97;;;4.75;;
30048;SDS011;16879;50.852;15.602;2023-06-26T00:16:41;5.40;;;4.30;;
30048;SDS011;16879;50.852;15.602;2023-06-26T00:19:07;11.02;;;6.20;;
30048;SDS011;16879;50.852;15.602;2023-06-26T00:21:33;7.68;;;6.20;;
30048;SDS011;16879;50.852;15.602;2023-06-26T00:24:09;5.50;;;4.90;;
30048;SDS011;16879;50.852;15.602;2023-06-26T00:26:39;5.80;;;5.25;;
30048;SDS011;16879;50.852;15.602;2023-06-26T00:29:05;5.97;;;4.90;;
30048;SDS011;16879;50.852;15.602;2023-06-26T00:31:31;5.95;;;4.82;;
30048;SDS011;16879;50.852;15.602;2023-06-26T00:33:58;5.95;;;5.35;;
30048;SDS011;16879;50.852;15.602;2023-06-26T00:36:25;7.43;;;5.22;;
30048;SDS011;16879;50.852;15.602;2023-06-26T00:38:52;6.47;;;5.32;;
30048;SDS011;16879;50.852;15.602;2023-06-26T00:41:24;6.07;;;5.22;;
30048;SDS011;16879;50.852;15.602;2023-06-26T00:43:52;5.13;;;4.65;;
30048;SDS011;16879;50.852;15.602;2023-06-26T00:46:18;5.15;;;4.65;;
30048;SDS011;16879;50.852;15.602;2023-06-26T00:48:44;5.75;;;4.80;;
30048;SDS011;16879;50.852;15.602;2023-06-26T00:51:11;4.75;;;4.25;;
30048;SDS011;16879;50.852;15.602;2023-06-26T00:53:37;5.18;;;4.15;;
30048;SDS011;16879;50.852;15.602;2023-06-26T00:56:07;5.45;;;4.93;;
30048;SDS011;16879;50.852;15.602;2023-06-26T00:58:33;4.63;;;4.22;;
30048;SDS011;16879;50.852;15.602;2023-06-26T01:01:00;7.35;;;4.72;;
30048;SDS011;16879;50.852;15.602;2023-06-26T01:03:28;6.20;;;5.15;;
30048;SDS011;16879;50.852;15.602;2023-06-26T01:05:56;5.47;;;4.97;;
30048;SDS011;16879;50.852;15.602;2023-06-26T01:08:24;5.50;;;4.90;;
30048;SDS011;16879;50.852;15.602;2023-06-26T01:10:50;5.32;;;4.45;;
30048;SDS011;16879;50.852;15.602;2023-06-26T01:13:17;6.07;;;4.72;;
30048;SDS011;16879;50.852;15.602;2023-06-26T01:15:44;4.65;;;4.22;;
30048;SDS011;16879;50.852;15.602;2023-06-26T01:18:15;6.32;;;5.13;;
30048;SDS011;16879;50.852;15.602;2023-06-26T01:20:43;7.60;;;4.93;;
30048;SDS011;16879;50.852;15.602;2023-06-26T01:23:22;6.65;;;5.00;;
30048;SDS011;16879;50.852;15.602;2023-06-26T01:28:43;8.27;;;5.97;;
30048;SDS011;16879;50.852;15.602;2023-06-26T01:31:13;7.00;;;5.07;;
30048;SDS011;16879;50.852;15.602;2023-06-26T01:33:40;6.60;;;5.97;;
30048;SDS011;16879;50.852;15.602;2023-06-26T01:36:07;7.55;;;5.35;;
30048;SDS011;16879;50.852;15.602;2023-06-26T01:38:34;6.57;;;4.85;;
30048;SDS011;16879;50.852;15.602;2023-06-26T01:41:02;5.80;;;5.20;;
30048;SDS011;16879;50.852;15.602;2023-06-26T01:43:31;6.22;;;5.50;;
30048;SDS011;16879;50.852;15.602;2023-06-26T01:46:09;8.20;;;4.97;;
30048;SDS011;16879;50.852;15.602;2023-06-26T01:48:39;7.00;;;5.05;;
30048;SDS011;16879;50.852;15.602;2023-06-26T01:51:06;6.72;;;5.70;;
30048;SDS011;16879;50.852;15.602;2023-06-26T01:53:36;9.30;;;5.25;;
30048;SDS011;16879;50.852;15.602;2023-06-26T01:56:21;6.72;;;5.22;;
30048;SDS011;16879;50.852;15.602;2023-06-26T01:58:49;6.40;;;5.30;;
30048;SDS011;16879;50.852;15.602;2023-06-26T02:01:19;5.47;;;4.93;;
30048;SDS011;16879;50.852;15.602;2023-06-26T02:03:46;6.85;;;4.75;;
30048;SDS011;16879;50.852;15.602;2023-06-26T02:06:12;5.57;;;5.03;;
30048;SDS011;16879;50.852;15.602;2023-06-26T02:08:42;6.80;;;5.32;;
30048;SDS011;16879;50.852;15.602;2023-06-26T02:11:08;8.02;;;5.03;;
30048;SDS011;16879;50.852;15.602;2023-06-26T02:13:34;5.32;;;4.75;;
30048;SDS011;16879;50.852;15.602;2023-06-26T02:16:00;5.75;;;4.32;;
30048;SDS011;16879;50.852;15.602;2023-06-26T02:18:28;4.95;;;4.45;;
30048;SDS011;16879;50.852;15.602;2023-06-26T02:23:30;7.10;;;4.80;;
30048;SDS011;16879;50.852;15.602;2023-06-26T02:26:16;4.72;;;4.00;;
30048;SDS011;16879;50.852;15.602;2023-06-26T02:28:44;4.07;;;3.78;;
30048;SDS011;16879;50.852;15.602;2023-06-26T02:34:19;9.40;;;4.72;;
30048;SDS011;16879;50.852;15.602;2023-06-26T02:36:55;6.28;;;4.78;;
30048;SDS011;16879;50.852;15.602;2023-06-26T02:39:21;5.95;;;5.35;;
30048;SDS011;16879;50.852;15.602;2023-06-26T02:41:48;5.88;;;5.25;;
30048;SDS011;16879;50.852;15.602;2023-06-26T02:44:14;7.10;;;5.35;;
30048;SDS011;16879;50.852;15.602;2023-06-26T02:46:40;9.07;;;6.05;;
30048;SDS011;16879;50.852;15.602;2023-06-26T02:49:06;8.07;;;6.20;;
30048;SDS011;16879;50.852;15.602;2023-06-26T02:51:33;5.97;;;4.82;;
30048;SDS011;16879;50.852;15.602;2023-06-26T02:53:59;7.47;;;6.47;;
30048;SDS011;16879;50.852;15.602;2023-06-26T02:56:26;7.40;;;5.68;;
30048;SDS011;16879;50.852;15.602;2023-06-26T02:58:55;8.38;;;6.20;;
30048;SDS011;16879;50.852;15.602;2023-06-26T03:01:21;6.65;;;5.70;;
30048;SDS011;16879;50.852;15.602;2023-06-26T03:03:48;7.50;;;6.00;;
30048;SDS011;16879;50.852;15.602;2023-06-26T03:06:14;10.25;;;6.20;;
30048;SDS011;16879;50.852;15.602;2023-06-26T03:08:40;7.22;;;5.55;;
30048;SDS011;16879;50.852;15.602;2023-06-26T03:11:10;8.40;;;7.50;;
30048;SDS011;16879;50.852;15.602;2023-06-26T03:13:37;6.65;;;5.75;;
30048;SDS011;16879;50.852;15.602;2023-06-26T03:16:08;6.25;;;5.65;;
30048;SDS011;16879;50.852;15.602;2023-06-26T03:18:34;9.85;;;5.93;;
30048;SDS011;16879;50.852;15.602;2023-06-26T03:21:00;7.55;;;6.75;;
30048;SDS011;16879;50.852;15.602;2023-06-26T03:23:27;7.40;;;6.50;;
30048;SDS011;16879;50.852;15.602;2023-06-26T03:25:54;8.75;;;6.55;;
30048;SDS011;16879;50.852;15.602;2023-06-26T03:28:26;7.95;;;6.75;;
30048;SDS011;16879;50.852;15.602;2023-06-26T03:30:53;8.48;;;7.15;;
30048;SDS011;16879;50.852;15.602;2023-06-26T03:33:30;6.55;;;5.80;;
30048;SDS011;16879;50.852;15.602;2023-06-26T03:35:56;7.43;;;6.38;;
30048;SDS011;16879;50.852;15.602;2023-06-26T03:38:24;8.35;;;7.55;;
30048;SDS011;16879;50.852;15.602;2023-06-26T03:40:57;7.78;;;6.45;;
30048;SDS011;16879;50.852;15.602;2023-06-26T03:43:46;9.05;;;6.95;;
30048;SDS011;16879;50.852;15.602;2023-06-26T03:46:44;6.10;;;5.50;;
30048;SDS011;16879;50.852;15.602;2023-06-26T03:49:26;8.57;;;6.40;;
30048;SDS011;16879;50.852;15.602;2023-06-26T03:51:54;8.70;;;7.45;;
30048;SDS011;16879;50.852;15.602;2023-06-26T03:54:32;6.90;;;6.20;;
30048;SDS011;16879;50.852;15.602;2023-06-26T03:57:08;6.75;;;6.15;;
30048;SDS011;16879;50.852;15.602;2023-06-26T03:59:56;6.70;;;6.10;;
30048;SDS011;16879;50.852;15.602;2023-06-26T04:02:53;6.78;;;6.13;;
30048;SDS011;16879;50.852;15.602;2023-06-26T04:06:12;6.93;;;6.15;;
30048;SDS011;16879;50.852;15.602;2023-06-26T04:08:48;8.23;;;6.45;;
30048;SDS011;16879;50.852;15.602;2023-06-26T04:11:35;7.93;;;6.45;;
30048;SDS011;16879;50.852;15.602;2023-06-26T04:14:11;7.22;;;5.70;;
30048;SDS011;16879;50.852;15.602;2023-06-26T04:16:37;6.85;;;5.55;;
30048;SDS011;16879;50.852;15.602;2023-06-26T04:19:08;6.68;;;5.97;;
30048;SDS011;16879;50.852;15.602;2023-06-26T04:21:41;7.70;;;6.97;;
30048;SDS011;16879;50.852;15.602;2023-06-26T04:24:37;10.80;;;7.25;;
30048;SDS011;16879;50.852;15.602;2023-06-26T04:27:07;7.05;;;6.10;;
30048;SDS011;16879;50.852;15.602;2023-06-26T04:29:35;7.68;;;6.97;;
30048;SDS011;16879;50.852;15.602;2023-06-26T04:32:06;9.38;;;7.85;;
30048;SDS011;16879;50.852;15.602;2023-06-26T04:34:37;10.65;;;7.13;;
30048;SDS011;16879;50.852;15.602;2023-06-26T04:37:11;9.07;;;8.05;;
30048;SDS011;16879;50.852;15.602;2023-06-26T04:39:41;9.80;;;8.07;;
30048;SDS011;16879;50.852;15.602;2023-06-26T04:42:13;9.73;;;7.25;;
30048;SDS011;16879;50.852;15.602;2023-06-26T04:44:39;8.05;;;7.25;;
30048;SDS011;16879;50.852;15.602;2023-06-26T04:47:06;11.15;;;7.47;;
